Time;durP1;ratioP1;P1;durP2;ratioP2;P2;SDS_P1;SDS_P2;PMS_P1;PMS_P2;Temp;Humidity;BMP_temperature;BMP_pressure;BME280_temperature;BME280_humidity;BME280_pressure;Samples;Min_cycle;Max_cycle;Signal;HPM_P1;HPM_P2
2022/03/29 00:01:58;;;;;;;24.42;20.23;;;5.00;99.90;;;;;;5051477;28;20475;-83
2022/03/29 00:04:24;;;;;;;26.40;20.90;;;5.10;99.90;;;;;;5049549;28;20392;-84
2022/03/29 00:06:50;;;;;;;25.02;20.50;;;5.10;99.90;;;;;;5049762;28;20433;-83
2022/03/29 00:09:16;;;;;;;26.30;21.38;;;5.00;99.90;;;;;;5050840;28;20424;-83
2022/03/29 00:11:41;;;;;;;24.42;20.63;;;5.00;99.90;;;;;;5046227;28;20405;-83
2022/03/29 00:14:07;;;;;;;25.05;20.63;;;4.90;99.90;;;;;;5030885;28;20943;-83
2022/03/29 00:16:33;;;;;;;25.65;21.17;;;5.00;99.90;;;;;;5029975;28;20400;-83
2022/03/29 00:18:59;;;;;;;28.52;21.55;;;5.00;99.90;;;;;;5030493;28;20417;-83
2022/03/29 00:21:25;;;;;;;26.20;21.85;;;4.90;99.90;;;;;;5030728;28;20420;-84
2022/03/29 00:23:51;;;;;;;27.37;22.27;;;4.90;99.90;;;;;;5031084;28;21104;-83
2022/03/29 00:26:17;;;;;;;28.02;23.88;;;4.90;99.90;;;;;;5030988;28;20370;-83
2022/03/29 00:28:43;;;;;;;30.40;23.97;;;4.90;99.90;;;;;;5030768;28;20404;-84
2022/03/29 00:31:09;;;;;;;29.17;23.17;;;5.00;99.90;;;;;;5030778;28;20386;-83
2022/03/29 00:33:35;;;;;;;30.15;23.33;;;5.10;99.90;;;;;;5031614;28;20390;-83
2022/03/29 00:36:01;;;;;;;27.20;21.77;;;5.30;99.90;;;;;;5030756;28;20485;-83
2022/03/29 00:38:27;;;;;;;27.77;22.43;;;5.40;99.90;;;;;;5039625;28;20394;-83
2022/03/29 00:40:53;;;;;;;26.05;21.35;;;5.50;99.90;;;;;;5050586;28;20394;-84
2022/03/29 00:43:18;;;;;;;26.63;22.65;;;5.60;99.90;;;;;;5049343;28;20481;-83
2022/03/29 00:45:45;;;;;;;25.55;22.15;;;5.70;99.90;;;;;;5048401;28;20419;-82
2022/03/29 00:48:13;;;;;;;26.92;22.48;;;5.80;99.90;;;;;;5048551;28;20395;-83
2022/03/29 00:50:40;;;;;;;27.80;21.98;;;5.80;99.90;;;;;;5048434;28;20789;-83
2022/03/29 00:53:06;;;;;;;27.73;22.73;;;5.90;99.90;;;;;;5047831;28;20391;-83
2022/03/29 00:55:32;;;;;;;26.60;21.50;;;6.00;99.90;;;;;;5049804;28;20556;-83
2022/03/29 00:58:01;;;;;;;28.88;22.88;;;6.10;99.90;;;;;;5048737;28;20408;-83
2022/03/29 01:00:28;;;;;;;27.43;22.60;;;6.10;99.90;;;;;;5050437;28;20392;-83
2022/03/29 01:02:53;;;;;;;25.00;21.23;;;6.20;99.90;;;;;;5050027;28;20745;-82
2022/03/29 01:05:19;;;;;;;30.17;23.27;;;6.30;99.90;;;;;;5048429;28;21204;-83
2022/03/29 01:07:44;;;;;;;27.77;23.13;;;6.40;99.90;;;;;;5050538;28;20390;-83
2022/03/29 01:10:11;;;;;;;27.47;22.57;;;6.30;99.90;;;;;;5044475;28;20456;-83
2022/03/29 01:12:37;;;;;;;28.07;22.80;;;6.30;99.90;;;;;;5030473;28;20394;-83
2022/03/29 01:15:07;;;;;;;26.33;22.58;;;6.30;99.90;;;;;;5029045;28;20428;-83
2022/03/29 01:17:39;;;;;;;27.85;22.88;;;6.30;99.90;;;;;;5030267;28;20413;-84
2022/03/29 01:20:27;;;;;;;28.38;23.38;;;6.40;99.90;;;;;;5029006;28;20467;-83
2022/03/29 01:22:54;;;;;;;29.30;23.85;;;6.50;99.90;;;;;;5029298;28;20393;-83
2022/03/29 01:25:39;;;;;;;28.97;24.03;;;6.40;99.90;;;;;;5031242;28;20801;-83
2022/03/29 01:28:06;;;;;;;27.77;23.52;;;6.40;99.90;;;;;;5032599;28;20386;-83
2022/03/29 01:30:32;;;;;;;29.63;23.35;;;6.50;99.90;;;;;;5034326;28;20377;-83
2022/03/29 01:33:00;;;;;;;29.10;24.23;;;6.60;99.90;;;;;;5032944;28;20389;-83
2022/03/29 01:35:27;;;;;;;29.20;24.17;;;6.50;99.90;;;;;;5034891;28;20374;-83
2022/03/29 01:37:54;;;;;;;30.00;24.10;;;6.50;99.90;;;;;;5034502;28;20452;-83
2022/03/29 01:40:22;;;;;;;30.00;24.70;;;6.60;99.90;;;;;;5034305;28;20385;-83
2022/03/29 01:42:49;;;;;;;29.13;24.38;;;6.50;99.90;;;;;;5033327;28;20385;-83
2022/03/29 01:45:17;;;;;;;29.23;24.25;;;6.60;99.90;;;;;;5034459;28;20381;-83
2022/03/29 01:47:43;;;;;;;30.35;25.02;;;6.60;99.90;;;;;;5033055;28;20405;-83
2022/03/29 01:50:11;;;;;;;31.42;25.17;;;6.70;99.90;;;;;;5033767;28;20452;-83
2022/03/29 01:52:42;;;;;;;33.92;26.02;;;6.60;99.90;;;;;;5036036;28;20389;-83
2022/03/29 01:55:09;;;;;;;33.05;25.40;;;6.50;99.90;;;;;;5032362;28;20408;-82
2022/03/29 01:57:35;;;;;;;31.33;24.85;;;6.40;99.90;;;;;;5033066;28;20406;-83
2022/03/29 02:02:44;;;;;;;27.58;23.40;;;6.50;99.90;;;;;;5033304;28;20380;-82
2022/03/29 02:05:10;;;;;;;30.40;25.42;;;6.60;99.90;;;;;;5045882;28;20409;-83
2022/03/29 02:07:36;;;;;;;29.48;24.90;;;6.60;99.90;;;;;;5052131;28;20434;-82
2022/03/29 02:10:02;;;;;;;30.30;23.90;;;6.60;99.90;;;;;;5051303;28;20893;-83
2022/03/29 02:12:28;;;;;;;32.00;25.63;;;6.60;99.90;;;;;;5053061;28;20371;-83
2022/03/29 02:14:54;;;;;;;29.35;24.27;;;6.70;99.90;;;;;;5053939;28;20529;-83
2022/03/29 02:17:19;;;;;;;30.48;24.83;;;6.70;99.90;;;;;;5055113;28;20399;-83
2022/03/29 02:19:45;;;;;;;31.50;24.93;;;6.70;99.90;;;;;;5056571;28;20395;-82
2022/03/29 02:22:10;;;;;;;28.97;25.20;;;6.70;99.90;;;;;;5055484;28;20401;-83
2022/03/29 02:24:36;;;;;;;28.90;24.05;;;6.70;99.90;;;;;;5053501;28;20376;-83
2022/03/29 02:27:01;;;;;;;29.10;23.70;;;6.70;99.90;;;;;;5052240;28;20386;-83
2022/03/29 02:29:27;;;;;;;31.30;25.07;;;6.80;99.90;;;;;;5037013;28;20907;-83
2022/03/29 02:31:53;;;;;;;28.83;23.95;;;6.80;99.90;;;;;;5033342;28;20465;-83
2022/03/29 02:34:18;;;;;;;31.17;24.53;;;6.90;99.90;;;;;;5033417;28;20388;-84
2022/03/29 02:36:44;;;;;;;29.90;24.30;;;6.90;99.90;;;;;;5033855;28;20397;-83
2022/03/29 02:39:09;;;;;;;28.02;23.55;;;6.80;99.90;;;;;;5033557;28;20397;-83
2022/03/29 02:41:35;;;;;;;30.88;25.48;;;6.90;99.90;;;;;;5033350;28;20381;-83
2022/03/29 02:44:00;;;;;;;30.67;25.23;;;6.80;99.90;;;;;;5031476;28;20387;-83
2022/03/29 02:46:26;;;;;;;28.70;24.08;;;6.90;99.90;;;;;;5031480;28;20404;-82
2022/03/29 02:48:52;;;;;;;28.40;24.35;;;6.90;99.90;;;;;;5032437;28;20373;-83
2022/03/29 02:51:18;;;;;;;29.17;24.03;;;6.90;99.90;;;;;;5032706;28;20752;-83
2022/03/29 02:53:44;;;;;;;30.45;24.65;;;7.00;99.90;;;;;;5032363;28;20396;-83
2022/03/29 02:56:10;;;;;;;30.13;24.60;;;7.00;99.90;;;;;;5033687;28;20412;-83
2022/03/29 02:58:35;;;;;;;29.63;25.15;;;7.10;99.90;;;;;;5035238;28;20385;-83
2022/03/29 03:01:01;;;;;;;30.07;24.90;;;7.10;99.90;;;;;;5033635;28;20381;-84
2022/03/29 03:03:29;;;;;;;30.10;24.10;;;7.00;99.90;;;;;;5033144;28;20381;-83
2022/03/29 03:05:54;;;;;;;29.75;24.70;;;7.00;99.90;;;;;;5031556;28;20459;-84
2022/03/29 03:08:20;;;;;;;28.42;23.90;;;7.10;99.90;;;;;;5031923;28;20373;-83
2022/03/29 03:10:45;;;;;;;31.33;26.03;;;7.10;99.90;;;;;;5030266;28;20538;-83
2022/03/29 03:13:11;;;;;;;31.77;25.07;;;6.90;99.90;;;;;;5038383;28;20391;-83
2022/03/29 03:15:37;;;;;;;29.40;24.35;;;6.90;99.90;;;;;;5050166;28;20437;-83
2022/03/29 03:18:02;;;;;;;29.38;24.60;;;6.90;99.90;;;;;;5050411;28;20399;-83
2022/03/29 03:20:29;;;;;;;32.23;25.37;;;6.80;99.90;;;;;;5052381;28;20748;-83
2022/03/29 03:22:55;;;;;;;30.30;24.55;;;6.90;99.90;;;;;;5051192;28;20387;-82
2022/03/29 03:25:21;;;;;;;30.63;25.57;;;6.90;99.90;;;;;;5053414;28;20380;-83
2022/03/29 03:27:47;;;;;;;31.33;25.48;;;7.00;99.90;;;;;;5051129;28;20379;-83
2022/03/29 03:30:16;;;;;;;31.45;25.15;;;7.00;99.90;;;;;;5052460;28;20372;-83
2022/03/29 03:32:42;;;;;;;30.38;25.40;;;7.00;99.90;;;;;;5051904;28;20387;-83
2022/03/29 03:35:08;;;;;;;30.33;26.30;;;7.00;99.90;;;;;;5051756;28;20386;-83
2022/03/29 03:37:34;;;;;;;32.77;26.17;;;7.00;99.90;;;;;;5053195;28;20495;-81
2022/03/29 03:40:01;;;;;;;30.97;26.33;;;6.90;99.90;;;;;;5053501;28;20391;-83
2022/03/29 03:42:26;;;;;;;34.78;27.17;;;6.80;99.90;;;;;;5053436;28;20377;-83
2022/03/29 03:44:52;;;;;;;34.50;27.88;;;6.70;99.90;;;;;;5053118;28;20734;-83
2022/03/29 03:47:17;;;;;;;32.20;27.10;;;6.60;99.90;;;;;;5034552;28;20456;-83
2022/03/29 03:49:43;;;;;;;34.57;27.17;;;6.60;99.90;;;;;;5032856;28;20400;-83
2022/03/29 03:52:09;;;;;;;36.40;27.20;;;6.60;99.90;;;;;;5030611;28;20448;-83
2022/03/29 03:54:36;;;;;;;35.22;27.25;;;6.70;99.90;;;;;;5033141;28;20377;-83
2022/03/29 03:57:03;;;;;;;37.00;26.75;;;6.60;99.90;;;;;;5031922;28;20977;-84
2022/03/29 03:59:28;;;;;;;35.20;27.13;;;6.70;99.90;;;;;;5034881;28;20378;-83
2022/03/29 04:01:54;;;;;;;34.73;26.10;;;6.70;99.90;;;;;;5031180;28;20435;-82
2022/03/29 04:04:19;;;;;;;34.53;27.60;;;6.70;99.90;;;;;;5030909;28;20389;-82
2022/03/29 04:06:45;;;;;;;37.05;26.05;;;6.60;99.90;;;;;;5031687;28;20401;-83
2022/03/29 04:09:11;;;;;;;34.73;27.47;;;6.70;99.90;;;;;;5030713;28;20378;-82
2022/03/29 04:11:36;;;;;;;33.30;27.67;;;6.80;99.90;;;;;;5030910;28;20389;-82
2022/03/29 04:14:02;;;;;;;33.58;26.77;;;6.80;99.90;;;;;;5031133;28;20438;-82
2022/03/29 04:16:28;;;;;;;32.60;27.10;;;6.80;99.90;;;;;;5030518;28;20400;-83
2022/03/29 04:18:54;;;;;;;36.97;29.87;;;6.80;99.90;;;;;;5030996;28;20374;-83
2022/03/29 04:21:19;;;;;;;33.28;26.58;;;6.80;99.90;;;;;;5036765;28;20483;-82
2022/03/29 04:23:46;;;;;;;37.47;30.10;;;6.80;99.90;;;;;;5051814;28;20379;-86
2022/03/29 04:26:12;;;;;;;35.50;29.42;;;6.80;99.90;;;;;;5052389;28;20372;-82
2022/03/29 04:28:38;;;;;;;36.13;30.40;;;6.70;99.90;;;;;;5054663;28;20778;-85
2022/03/29 04:31:03;;;;;;;38.03;30.50;;;6.70;99.90;;;;;;5054044;28;20379;-83
2022/03/29 04:33:29;;;;;;;39.10;29.47;;;6.70;99.90;;;;;;5054359;28;20436;-82
2022/03/29 04:35:56;;;;;;;40.97;30.52;;;6.70;99.90;;;;;;5050145;28;21130;-84
2022/03/29 04:38:23;;;;;;;40.30;31.17;;;6.60;99.90;;;;;;5054273;28;20391;-82
2022/03/29 04:40:49;;;;;;;39.63;29.77;;;6.70;99.90;;;;;;5054808;28;20410;-83
2022/03/29 04:43:15;;;;;;;41.10;30.08;;;6.70;99.90;;;;;;5053155;28;20376;-83
2022/03/29 04:45:41;;;;;;;39.58;30.33;;;6.80;99.90;;;;;;5052675;28;20909;-83
2022/03/29 04:48:07;;;;;;;40.78;30.45;;;6.90;99.90;;;;;;5053495;28;20812;-84
2022/03/29 04:50:33;;;;;;;40.53;30.60;;;6.80;99.90;;;;;;5051396;28;20544;-83
2022/03/29 04:52:58;;;;;;;41.23;29.57;;;6.70;99.90;;;;;;5052762;28;20423;-82
2022/03/29 04:55:24;;;;;;;39.58;28.55;;;6.70;99.90;;;;;;5052259;28;20453;-82
2022/03/29 04:57:50;;;;;;;37.78;29.05;;;6.70;99.90;;;;;;5053666;28;20396;-83
2022/03/29 05:00:20;;;;;;;38.22;29.25;;;6.70;99.90;;;;;;5053044;28;20445;-84
2022/03/29 05:02:46;;;;;;;37.67;29.25;;;6.70;99.90;;;;;;5055155;28;20399;-83
2022/03/29 05:05:12;;;;;;;41.13;28.83;;;6.70;99.90;;;;;;5055461;28;20395;-83
2022/03/29 05:07:38;;;;;;;39.83;28.92;;;6.80;99.90;;;;;;5059219;28;20379;-83
2022/03/29 05:10:05;;;;;;;41.65;29.80;;;6.80;99.90;;;;;;5046646;28;20392;-83
2022/03/29 05:12:48;;;;;;;41.77;29.43;;;6.80;99.90;;;;;;5048124;28;20527;-83
2022/03/29 05:15:17;;;;;;;43.40;31.33;;;6.80;99.90;;;;;;5043428;28;20936;-83
2022/03/29 05:17:43;;;;;;;42.88;31.17;;;6.70;99.90;;;;;;5050073;28;20444;-83
2022/03/29 05:20:11;;;;;;;43.22;29.20;;;6.80;99.90;;;;;;5044526;28;20390;-83
2022/03/29 05:22:46;;;;;;;42.63;30.63;;;6.80;99.90;;;;;;5046918;28;20389;-83
2022/03/29 05:25:14;;;;;;;45.08;30.02;;;6.80;99.90;;;;;;5050691;28;20473;-83
2022/03/29 05:27:40;;;;;;;43.05;30.38;;;6.70;99.90;;;;;;5043802;28;20381;-84
2022/03/29 05:30:07;;;;;;;41.55;29.48;;;6.80;99.90;;;;;;5043823;28;20800;-84
2022/03/29 05:32:32;;;;;;;40.05;29.17;;;6.80;99.90;;;;;;5050240;28;20418;-83
2022/03/29 05:34:58;;;;;;;41.90;29.52;;;6.80;99.90;;;;;;5042178;28;20993;-83
2022/03/29 05:37:24;;;;;;;49.10;30.85;;;6.80;99.90;;;;;;5046433;28;20993;-85
2022/03/29 05:39:49;;;;;;;43.35;30.60;;;6.80;99.90;;;;;;5048467;28;20406;-83
2022/03/29 05:42:15;;;;;;;43.67;30.53;;;6.90;99.90;;;;;;5042211;28;20421;-83
2022/03/29 05:44:41;;;;;;;44.90;29.88;;;6.80;99.90;;;;;;5042074;28;20376;-83
2022/03/29 05:49:52;;;;;;;43.03;29.60;;;6.90;99.90;;;;;;5044456;28;20387;-83
2022/03/29 05:52:18;;;;;;;45.90;28.95;;;6.90;99.90;;;;;;5042703;28;20389;-83
2022/03/29 05:54:45;;;;;;;45.88;30.30;;;6.90;99.90;;;;;;5042891;28;20409;-85
2022/03/29 05:57:19;;;;;;;39.80;28.30;;;6.90;99.90;;;;;;5044800;28;20404;-83
2022/03/29 05:59:45;;;;;;;43.88;28.77;;;7.00;99.90;;;;;;5049177;28;20464;-83
2022/03/29 06:02:11;;;;;;;44.37;28.93;;;7.10;99.90;;;;;;5046370;28;20382;-83
2022/03/29 06:04:37;;;;;;;43.40;29.65;;;7.20;99.90;;;;;;5047728;28;20481;-83
2022/03/29 06:07:04;;;;;;;44.00;28.93;;;7.10;99.90;;;;;;5048493;28;20386;-84
2022/03/29 06:09:34;;;;;;;52.70;29.40;;;7.20;99.90;;;;;;5043542;28;20966;-83
2022/03/29 06:12:01;;;;;;;43.42;29.70;;;7.30;99.90;;;;;;5044573;28;21042;-83
2022/03/29 06:14:26;;;;;;;39.20;28.13;;;7.30;99.90;;;;;;5046664;28;20373;-85
2022/03/29 06:16:52;;;;;;;41.67;28.15;;;7.40;99.90;;;;;;5043427;28;20471;-83
2022/03/29 06:19:18;;;;;;;41.85;29.00;;;7.50;99.90;;;;;;5044934;28;20406;-83
2022/03/29 06:21:44;;;;;;;42.30;27.88;;;7.50;99.90;;;;;;5044484;28;20432;-83
2022/03/29 06:24:11;;;;;;;38.25;27.13;;;7.60;99.90;;;;;;5049031;28;20446;-84
2022/03/29 06:26:39;;;;;;;37.37;27.07;;;7.70;99.90;;;;;;5049284;28;20390;-84
2022/03/29 06:29:09;;;;;;;37.20;26.87;;;7.80;99.90;;;;;;5047169;28;20384;-83
2022/03/29 06:31:35;;;;;;;37.00;26.05;;;8.00;99.90;;;;;;5046808;28;20486;-83
2022/03/29 06:34:01;;;;;;;33.97;24.63;;;8.10;99.90;;;;;;5045029;28;20375;-84
2022/03/29 06:36:28;;;;;;;36.78;24.80;;;8.20;99.90;;;;;;5045137;28;20405;-86
2022/03/29 06:38:53;;;;;;;38.85;25.40;;;8.20;99.90;;;;;;5046774;28;20828;-86
2022/03/29 06:41:19;;;;;;;37.53;25.65;;;8.20;99.90;;;;;;5046733;28;20405;-84
2022/03/29 06:43:46;;;;;;;39.20;25.55;;;8.20;99.90;;;;;;5042552;28;20376;-84
2022/03/29 06:46:12;;;;;;;35.60;25.90;;;8.40;99.90;;;;;;5045155;28;20392;-83
2022/03/29 06:48:41;;;;;;;34.78;24.88;;;8.60;99.90;;;;;;5042020;28;20381;-84
2022/03/29 06:51:06;;;;;;;36.63;24.67;;;8.60;99.90;;;;;;5041860;28;20384;-82
2022/03/29 06:53:34;;;;;;;33.08;22.90;;;8.60;99.90;;;;;;5043169;28;20390;-82
2022/03/29 06:55:59;;;;;;;31.02;22.60;;;8.70;99.90;;;;;;5042383;28;20473;-82
2022/03/29 06:58:25;;;;;;;32.88;23.02;;;8.80;99.90;;;;;;5042202;28;20945;-82
2022/03/29 07:00:50;;;;;;;35.17;22.87;;;9.00;99.90;;;;;;5042138;28;22025;-81
2022/03/29 07:03:16;;;;;;;32.33;22.90;;;9.00;99.90;;;;;;5042026;28;20416;-83
2022/03/29 07:05:42;;;;;;;31.33;22.77;;;9.10;99.90;;;;;;5043655;28;20380;-83
2022/03/29 07:08:11;;;;;;;33.78;22.70;;;;;;;;;;5042735;28;20405;-82
2022/03/29 07:13:23;;;;;;;38.10;22.25;;;9.60;99.90;;;;;;5045179;28;20459;-82
2022/03/29 07:15:49;;;;;;;30.88;20.40;;;9.10;99.90;;;;;;5048964;28;20368;-84
2022/03/29 07:18:15;;;;;;;31.00;20.80;;;9.30;99.90;;;;;;5048171;28;20984;-83
2022/03/29 07:20:40;;;;;;;30.27;21.40;;;9.40;99.90;;;;;;5041066;28;20407;-81
2022/03/29 07:23:06;;;;;;;27.98;19.58;;;9.60;99.90;;;;;;5045426;28;20400;-84
2022/03/29 07:25:32;;;;;;;29.03;19.60;;;9.50;99.90;;;;;;5045406;28;20400;-81
2022/03/29 07:27:58;;;;;;;29.63;20.33;;;9.20;99.90;;;;;;5044822;28;20749;-82
2022/03/29 07:30:24;;;;;;;27.48;19.58;;;8.60;99.90;;;;;;5042980;28;20395;-82
2022/03/29 07:32:55;;;;;;;25.40;17.87;;;8.90;99.90;;;;;;5041466;28;20399;-82
2022/03/29 07:35:23;;;;;;;23.67;17.80;;;9.10;99.90;;;;;;5046079;28;20467;-82
2022/03/29 07:37:49;;;;;;;26.55;17.67;;;8.50;99.90;;;;;;5045951;28;20879;-82
2022/03/29 07:40:20;;;;;;;23.25;16.83;;;9.20;99.90;;;;;;5057954;28;21871;-82
2022/03/29 07:42:46;;;;;;;27.08;18.10;;;8.50;99.90;;;;;;5044819;28;20393;-82
2022/03/29 07:45:12;;;;;;;26.73;17.30;;;8.50;99.90;;;;;;5042417;28;20389;-82
2022/03/29 07:47:41;;;;;;;25.10;18.00;;;8.10;99.90;;;;;;5044690;28;20450;-82
2022/03/29 07:50:08;;;;;;;28.13;18.80;;;8.50;99.90;;;;;;5044343;28;20385;-82
2022/03/29 07:52:39;;;;;;;28.00;19.23;;;8.70;99.90;;;;;;5042507;28;20388;-83
2022/03/29 07:55:07;;;;;;;24.85;18.38;;;8.80;99.90;;;;;;5040698;28;20475;-82
2022/03/29 07:57:34;;;;;;;32.10;22.10;;;9.10;99.90;;;;;;5040808;28;20846;-83
2022/03/29 08:00:31;;;;;;;27.55;19.83;;;9.20;99.90;;;;;;5041795;28;20457;-85
2022/03/29 08:02:47;;;;;;;26.63;19.25;;;9.00;99.90;;;;;;5051825;28;20383;-83
2022/03/29 08:05:12;;;;;;;26.42;18.83;;;8.70;99.90;;;;;;5038340;28;20384;-82
2022/03/29 08:07:40;;;;;;;24.83;17.60;;;9.00;99.90;;;;;;5046797;28;20384;-81
2022/03/29 08:10:07;;;;;;;29.00;20.02;;;9.40;99.90;;;;;;5041861;28;20389;-82
2022/03/29 08:12:33;;;;;;;30.95;18.48;;;9.70;99.90;;;;;;5040741;28;20387;-85
2022/03/29 08:14:59;;;;;;;33.88;26.13;;;9.80;99.90;;;;;;5041918;28;20881;-82
2022/03/29 08:17:24;;;;;;;39.47;20.43;;;10.00;99.90;;;;;;5038699;28;20461;-82
2022/03/29 08:19:50;;;;;;;31.67;19.33;;;10.70;99.90;;;;;;5039408;28;20894;-82
2022/03/29 08:22:15;;;;;;;29.00;17.80;;;10.70;99.90;;;;;;5041131;28;20464;-82
2022/03/29 08:24:41;;;;;;;24.67;17.53;;;10.80;99.90;;;;;;5038508;28;20388;-82
2022/03/29 08:27:09;;;;;;;30.15;19.55;;;10.60;99.90;;;;;;5040806;28;20445;-82
2022/03/29 08:29:34;;;;;;;26.60;18.65;;;10.40;99.90;;;;;;5043374;28;20450;-85
2022/03/29 08:32:00;;;;;;;25.10;19.27;;;10.40;99.90;;;;;;5041525;28;20540;-84
2022/03/29 08:34:26;;;;;;;30.92;23.08;;;10.20;99.90;;;;;;5039565;28;20423;-83
2022/03/29 08:36:52;;;;;;;28.70;22.63;;;9.80;99.90;;;;;;5040926;28;21037;-82
2022/03/29 08:39:18;;;;;;;30.73;21.25;;;9.80;99.90;;;;;;5043363;28;20440;-83
2022/03/29 08:42:02;;;;;;;33.85;20.83;;;9.90;99.90;;;;;;5045530;28;20893;-83
2022/03/29 08:44:31;;;;;;;32.60;25.08;;;9.90;99.90;;;;;;5075077;28;20462;-83
2022/03/29 08:46:57;;;;;;;29.40;20.13;;;9.70;99.90;;;;;;5043462;28;20518;-84
2022/03/29 08:49:23;;;;;;;32.38;21.27;;;9.90;99.90;;;;;;5044742;28;20390;-83
2022/03/29 08:51:50;;;;;;;27.17;19.40;;;10.50;99.90;;;;;;5044927;28;20385;-84
2022/03/29 08:54:19;;;;;;;29.15;20.70;;;10.90;99.90;;;;;;5046610;28;20404;-82
2022/03/29 08:56:45;;;;;;;24.60;19.15;;;11.20;99.90;;;;;;5045903;28;20434;-84
2022/03/29 08:59:11;;;;;;;28.63;19.88;;;11.50;99.90;;;;;;5044218;28;20865;-83
2022/03/29 09:01:37;;;;;;;28.25;19.80;;;;;;;;;;5044932;28;20414;-82
2022/03/29 09:04:03;;;;;;;27.25;18.27;;;11.40;99.90;;;;;;5047075;28;20371;-82
2022/03/29 09:06:29;;;;;;;27.77;17.88;;;11.60;99.90;;;;;;5045522;28;20381;-82
2022/03/29 09:08:55;;;;;;;30.33;18.77;;;11.70;99.90;;;;;;5046280;28;20751;-82
2022/03/29 09:11:21;;;;;;;27.95;17.77;;;11.80;99.90;;;;;;5047386;28;20388;-83
2022/03/29 09:13:47;;;;;;;32.50;18.42;;;;;;;;;;5048898;28;20420;-82
2022/03/29 09:16:30;;;;;;;24.80;15.70;;;;;;;;;;5043875;28;20380;-83
2022/03/29 09:18:55;;;;;;;33.63;16.90;;;12.00;99.90;;;;;;5044540;28;20373;-83
2022/03/29 09:21:21;;;;;;;23.10;16.53;;;12.00;99.90;;;;;;5042167;28;20584;-82
2022/03/29 09:24:08;;;;;;;21.73;17.33;;;12.10;99.10;;;;;;5045618;28;20399;-84
2022/03/29 09:26:37;;;;;;;27.02;17.67;;;11.90;98.60;;;;;;5042474;28;20381;-83
2022/03/29 09:29:16;;;;;;;23.42;16.23;;;11.70;99.90;;;;;;5047218;28;20360;-82
2022/03/29 09:31:42;;;;;;;20.45;15.35;;;11.80;99.80;;;;;;5043716;28;20719;-84
2022/03/29 09:34:20;;;;;;;22.85;15.50;;;12.20;97.80;;;;;;5045004;28;20419;-84
2022/03/29 09:36:51;;;;;;;20.23;15.90;;;12.10;96.80;;;;;;5042221;28;20412;-82
2022/03/29 09:39:34;;;;;;;27.10;15.60;;;11.80;99.90;;;;;;5043430;28;20384;-83
2022/03/29 09:42:02;;;;;;;19.83;15.27;;;11.70;99.90;;;;;;5043960;28;20389;-83
2022/03/29 09:44:35;;;;;;;24.35;16.33;;;;;;;;;;5042134;28;20385;-83
2022/03/29 09:47:04;;;;;;;22.13;16.75;;;;;;;;;;5041176;28;20798;-82
2022/03/29 09:49:30;;;;;;;23.92;16.83;;;;;;;;;;5040210;28;20908;-82
2022/03/29 09:52:09;;;;;;;26.05;18.83;;;;;;;;;;5040518;28;20386;-82
2022/03/29 09:54:36;;;;;;;22.75;18.50;;;;;;;;;;5039274;28;20756;-83
2022/03/29 09:57:02;;;;;;;23.58;18.50;;;;;;;;;;5043046;28;20406;-84
2022/03/29 09:59:28;;;;;;;22.15;16.90;;;;;;;;;;5043185;28;20386;-82
2022/03/29 10:01:57;;;;;;;23.08;16.55;;;;;;;;;;5041858;28;20370;-82
2022/03/29 10:04:24;;;;;;;20.92;14.93;;;;;;;;;;5041844;28;20972;-83
2022/03/29 10:06:55;;;;;;;19.55;14.73;;;;;;;;;;5041362;28;20823;-84
2022/03/29 10:09:28;;;;;;;22.83;14.68;;;;;;;;;;5042647;28;20398;-82
2022/03/29 10:12:09;;;;;;;17.50;13.65;;;12.00;95.30;;;;;;5044934;28;20367;-83
2022/03/29 10:14:39;;;;;;;17.00;12.05;;;11.80;94.90;;;;;;5043003;28;20914;-82
2022/03/29 10:17:07;;;;;;;17.23;12.50;;;11.80;94.70;;;;;;5041298;28;20788;-84
2022/03/29 10:19:37;;;;;;;17.55;13.32;;;11.90;94.70;;;;;;5044442;28;20379;-84
2022/03/29 10:22:04;;;;;;;18.83;12.43;;;12.00;94.10;;;;;;5046942;28;20381;-84
2022/03/29 10:24:30;;;;;;;20.33;12.80;;;11.70;94.70;;;;;;5042577;28;20484;-83
2022/03/29 10:26:59;;;;;;;19.30;13.27;;;11.60;96.40;;;;;;5044793;28;20379;-82
2022/03/29 10:29:25;;;;;;;17.08;12.30;;;11.60;95.30;;;;;;5041779;28;20512;-83
2022/03/29 10:32:05;;;;;;;16.20;12.98;;;11.80;95.60;;;;;;5044475;28;20872;-85
2022/03/29 10:34:37;;;;;;;21.45;11.45;;;12.10;95.60;;;;;;5044575;28;20390;-83
2022/03/29 10:37:10;;;;;;;20.60;10.98;;;12.10;94.50;;;;;;5042419;28;20407;-82
2022/03/29 10:39:57;;;;;;;13.25;8.90;;;12.10;93.60;;;;;;5043115;28;20412;-83
2022/03/29 10:42:30;;;;;;;14.65;8.60;;;12.20;92.10;;;;;;5045565;28;20391;-82
2022/03/29 10:45:02;;;;;;;17.03;9.00;;;12.20;90.70;;;;;;5050050;28;20381;-85
2022/03/29 10:47:30;;;;;;;11.77;8.05;;;12.20;91.70;;;;;;5050195;28;20386;-83
2022/03/29 10:49:55;;;;;;;12.50;7.38;;;12.30;92.50;;;;;;5043550;28;20422;-82
2022/03/29 10:52:21;;;;;;;11.90;6.63;;;12.40;91.90;;;;;;5043740;28;20409;-83
2022/03/29 10:54:48;;;;;;;9.60;5.90;;;12.70;92.10;;;;;;5042074;28;20481;-83
2022/03/29 10:57:28;;;;;;;9.18;5.65;;;12.30;87.00;;;;;;5040944;28;20515;-83
2022/03/29 11:00:18;;;;;;;10.02;4.90;;;11.70;89.30;;;;;;5044787;28;20456;-83
2022/03/29 11:03:15;;;;;;;11.00;5.15;;;11.90;90.00;;;;;;5066789;28;20400;-85
2022/03/29 11:06:07;;;;;;;12.70;5.80;;;11.90;86.70;;;;;;5044643;28;20472;-81
2022/03/29 11:08:48;;;;;;;10.37;5.63;;;11.90;84.60;;;;;;5080584;28;20490;-83
2022/03/29 11:11:40;;;;;;;9.90;5.38;;;11.90;87.50;;;;;;5047019;28;20378;-82
2022/03/29 11:14:28;;;;;;;12.13;5.32;;;12.10;87.10;;;;;;5050470;28;20373;-84
2022/03/29 11:17:09;;;;;;;13.00;5.55;;;12.40;88.20;;;;;;5049500;28;21190;-84
2022/03/29 11:19:48;;;;;;;11.10;4.60;;;12.60;83.30;;;;;;5048125;28;20400;-85
2022/03/29 11:22:31;;;;;;;15.27;4.90;;;;;;;;;;5047608;28;20404;-82
2022/03/29 11:24:59;;;;;;;9.65;4.57;;;;;;;;;;5048879;28;20461;-84
2022/03/29 11:27:27;;;;;;;12.60;5.50;;;;;;;;;;5049070;28;20469;-85
2022/03/29 11:29:53;;;;;;;11.55;5.07;;;;;;;;;;5051250;28;20448;-84
2022/03/29 11:32:19;;;;;;;8.73;4.18;;;;;;;;;;5049449;28;20417;-84
2022/03/29 11:34:46;;;;;;;10.90;4.20;;;;;;;;;;5052255;28;20412;-81
2022/03/29 11:37:28;;;;;;;6.25;3.60;;;;;;;;;;5045535;28;20448;-82
2022/03/29 11:39:54;;;;;;;8.70;3.83;;;;;;;;;;5041980;28;20397;-83
2022/03/29 11:42:20;;;;;;;10.65;4.22;;;;;;;;;;5044176;28;20878;-83
2022/03/29 11:44:47;;;;;;;8.75;3.53;;;;;;;;;;5045363;28;20441;-83
2022/03/29 11:47:13;;;;;;;10.35;4.40;;;;;;;;;;5044585;28;20451;-83
2022/03/29 11:49:40;;;;;;;10.10;4.38;;;;;;;;;;5041927;28;20465;-83
2022/03/29 11:52:08;;;;;;;12.18;4.65;;;;;;;;;;5041831;28;20368;-85
2022/03/29 11:54:51;;;;;;;8.25;3.90;;;;;;;;;;5045435;28;20409;-82
2022/03/29 11:57:21;;;;;;;8.23;4.20;;;;;;;;;;5041702;28;20494;-84
2022/03/29 11:59:48;;;;;;;11.02;4.00;;;;;;;;;;5042633;28;20372;-83
2022/03/29 12:02:14;;;;;;;9.90;4.30;;;;;;;;;;5045587;28;20389;-82
2022/03/29 12:04:40;;;;;;;11.02;5.25;;;;;;;;;;5042422;28;20407;-83
2022/03/29 12:07:09;;;;;;;9.20;4.93;;;;;;;;;;5043566;28;20491;-83
2022/03/29 12:09:38;;;;;;;10.40;4.90;;;;;;;;;;5042357;28;20398;-85
2022/03/29 12:12:12;;;;;;;10.30;4.22;;;;;;;;;;5039336;28;20392;-82
2022/03/29 12:14:38;;;;;;;11.63;3.97;;;;;;;;;;5040275;28;20499;-83
2022/03/29 12:17:08;;;;;;;10.85;4.97;;;;;;;;;;5040587;28;20496;-83
2022/03/29 12:19:35;;;;;;;6.80;3.15;;;;;;;;;;5040270;28;20380;-83
2022/03/29 12:22:04;;;;;;;9.25;4.00;;;;;;;;;;5044379;28;20486;-82
2022/03/29 12:24:34;;;;;;;8.57;3.80;;;;;;;;;;5048670;28;20375;-83
2022/03/29 12:27:05;;;;;;;7.00;3.55;;;;;;;;;;5043017;28;20436;-83
2022/03/29 12:29:32;;;;;;;6.30;3.67;;;;;;;;;;5042579;28;20880;-83
2022/03/29 12:32:00;;;;;;;7.28;2.95;;;;;;;;;;5041605;28;20383;-82
2022/03/29 12:34:28;;;;;;;9.02;3.20;;;;;;;;;;5041613;28;20378;-82
2022/03/29 12:36:55;;;;;;;7.53;3.47;;;;;;;;;;5036340;28;20417;-84
2022/03/29 12:39:21;;;;;;;10.00;3.25;;;;;;;;;;5036239;28;20440;-83
2022/03/29 12:41:55;;;;;;;7.97;3.28;;;;;;;;;;5037380;28;20380;-85
2022/03/29 12:44:27;;;;;;;8.02;3.58;;;;;;;;;;5038574;28;22687;-84
2022/03/29 12:46:55;;;;;;;9.23;3.33;;;;;;;;;;5045397;28;20416;-85
2022/03/29 12:49:21;;;;;;;8.45;3.25;;;;;;;;;;5039466;28;20390;-84
2022/03/29 12:51:53;;;;;;;11.32;3.97;;;;;;;;;;5043030;28;20387;-83
2022/03/29 12:54:19;;;;;;;9.90;3.87;;;;;;;;;;5045936;28;21204;-83
2022/03/29 12:56:46;;;;;;;12.00;3.60;;;;;;;;;;5043302;28;20412;-83
2022/03/29 12:59:37;;;;;;;9.15;3.25;;;;;;;;;;5041330;28;20743;-83
2022/03/29 13:02:22;;;;;;;6.95;2.67;;;;;;;;;;5034879;28;20390;-84
2022/03/29 13:04:49;;;;;;;10.40;3.10;;;;;;;;;;5044861;28;20815;-84
2022/03/29 13:07:39;;;;;;;18.95;4.35;;;;;;;;;;5045939;28;20421;-82
2022/03/29 13:10:10;;;;;;;7.88;2.97;;;;;;;;;;5040406;28;20391;-82